Главная страница
METAR-TAF:

METAR-TAF

Аэропорты :

Чита, Россия

Кадала

широта: 52-05N, долгота: 113-29E, высота над уровнем моря: 685 м

Текущие метеонаблюдения

Эта сводка был подготовлена 20 минут назад, в 05:30 UTC
Ветер 4 Узел от западный-юго-западный
Температура -21°C
Влажность 40%
Давление 1025 hPa
Видимость 10 км и более

METAR: UIAA 240530Z 24002MPS 9999 NSC M21/M31 Q1025 R29/810160 NOSIG RMK QFE710/0946

Время: 14:50 (05:50 UTC)

Прогноз

Эта сводка был подготовлена 50 минут назад, в 05:00 UTC
Прогноз действительный с 24-го 06 UTC до 25-го 06 UTC
Ветер 6 Узел от южный-юго-западный
Видимость 10 км и более
временами
С 24-го 06 UTC до 24-го 12 UTC
Ветер 10 Узел от западно-северо-западный

TAF: UIAA 240500Z 2406/2506 20003MPS 9999 NSC TEMPO 2406/2412 30005MPS

Метеонаблюдения и прогнозы для более 4000 аэропортов (сводки METAR и TAF).

Имеющиеся станции представлены на карте желтыми и красными точками.

Чтобы увидеть название станции, наведите на нее мышь.

Затем щелкните, чтобы увидеть метеонаблюдения и метеопрогнозы.

Управление картой: чтобы увеличить масштаб, щелкните зеленые кнопки с черным крестиком; чтобы уменьшить масштаб, щелкните зеленую кнопку с тире; для просмотра соседних карт щелкайте зеленые стрелки.


METAR-TAF: